sensor_id;sensor_type;location;lat;lon;timestamp;temperature;humidity
15259;DHT22;34462;51.368;12.364;2022-12-07T00:01:41;3.00;99.90
15259;DHT22;34462;51.368;12.364;2022-12-07T00:04:13;2.90;99.90
15259;DHT22;34462;51.368;12.364;2022-12-07T00:06:44;3.00;99.90
15259;DHT22;34462;51.368;12.364;2022-12-07T00:09:15;3.00;99.90
15259;DHT22;34462;51.368;12.364;2022-12-07T00:11:48;2.80;99.90
15259;DHT22;34462;51.368;12.364;2022-12-07T00:14:20;2.90;99.90
15259;DHT22;34462;51.368;12.364;2022-12-07T00:16:49;2.90;99.90
15259;DHT22;34462;51.368;12.364;2022-12-07T00:19:18;2.80;99.90
15259;DHT22;34462;51.368;12.364;2022-12-07T00:21:47;2.70;99.90
15259;DHT22;34462;51.368;12.364;2022-12-07T00:24:15;2.60;99.90
15259;DHT22;34462;51.368;12.364;2022-12-07T00:26:43;2.50;99.90
15259;DHT22;34462;51.368;12.364;2022-12-07T00:29:15;2.50;99.90
15259;DHT22;34462;51.368;12.364;2022-12-07T00:31:46;2.50;99.90
15259;DHT22;34462;51.368;12.364;2022-12-07T00:34:17;2.50;99.90
15259;DHT22;34462;51.368;12.364;2022-12-07T00:36:48;2.50;99.90
15259;DHT22;34462;51.368;12.364;2022-12-07T00:39:17;2.40;99.90
15259;DHT22;34462;51.368;12.364;2022-12-07T00:41:45;2.30;99.90
15259;DHT22;34462;51.368;12.364;2022-12-07T00:44:13;2.30;99.90
15259;DHT22;34462;51.368;12.364;2022-12-07T00:46:41;2.20;99.90
15259;DHT22;34462;51.368;12.364;2022-12-07T00:49:11;2.10;99.90
15259;DHT22;34462;51.368;12.364;2022-12-07T00:51:39;2.00;99.90
15259;DHT22;34462;51.368;12.364;2022-12-07T00:54:07;2.00;99.90
15259;DHT22;34462;51.368;12.364;2022-12-07T00:56:36;1.90;99.90
15259;DHT22;34462;51.368;12.364;2022-12-07T00:59:05;1.80;99.90
15259;DHT22;34462;51.368;12.364;2022-12-07T01:01:35;1.70;99.90
15259;DHT22;34462;51.368;12.364;2022-12-07T01:04:04;1.70;99.90
15259;DHT22;34462;51.368;12.364;2022-12-07T01:06:34;1.70;99.90
15259;DHT22;34462;51.368;12.364;2022-12-07T01:09:03;1.60;99.90
15259;DHT22;34462;51.368;12.364;2022-12-07T01:11:33;1.60;99.90
15259;DHT22;34462;51.368;12.364;2022-12-07T01:14:01;1.60;99.90
15259;DHT22;34462;51.368;12.364;2022-12-07T01:16:31;1.60;99.90
15259;DHT22;34462;51.368;12.364;2022-12-07T01:19:01;1.50;99.90
15259;DHT22;34462;51.368;12.364;2022-12-07T01:21:34;1.50;99.90
15259;DHT22;34462;51.368;12.364;2022-12-07T01:24:06;1.50;99.90
15259;DHT22;34462;51.368;12.364;2022-12-07T01:26:37;1.50;99.90
15259;DHT22;34462;51.368;12.364;2022-12-07T01:29:05;1.60;99.90
15259;DHT22;34462;51.368;12.364;2022-12-07T01:31:33;1.50;99.90
15259;DHT22;34462;51.368;12.364;2022-12-07T01:34:02;1.50;99.90
15259;DHT22;34462;51.368;12.364;2022-12-07T01:36:31;1.40;99.90
15259;DHT22;34462;51.368;12.364;2022-12-07T01:39:04;1.40;99.90
15259;DHT22;34462;51.368;12.364;2022-12-07T01:41:36;1.40;99.90
15259;DHT22;34462;51.368;12.364;2022-12-07T01:44:25;1.30;99.90
15259;DHT22;34462;51.368;12.364;2022-12-07T01:46:57;1.30;99.90
15259;DHT22;34462;51.368;12.364;2022-12-07T01:49:31;1.30;99.90
15259;DHT22;34462;51.368;12.364;2022-12-07T01:52:12;1.30;99.90
15259;DHT22;34462;51.368;12.364;2022-12-07T01:54:48;1.30;99.90
15259;DHT22;34462;51.368;12.364;2022-12-07T01:57:19;1.30;99.90
15259;DHT22;34462;51.368;12.364;2022-12-07T01:59:51;1.20;99.90
15259;DHT22;34462;51.368;12.364;2022-12-07T02:02:25;1.20;99.90
15259;DHT22;34462;51.368;12.364;2022-12-07T02:04:55;1.10;99.90
15259;DHT22;34462;51.368;12.364;2022-12-07T02:07:28;1.10;99.90
15259;DHT22;34462;51.368;12.364;2022-12-07T02:10:12;1.10;99.90
15259;DHT22;34462;51.368;12.364;2022-12-07T02:12:42;1.00;99.90
15259;DHT22;34462;51.368;12.364;2022-12-07T02:15:12;1.00;99.90
15259;DHT22;34462;51.368;12.364;2022-12-07T02:17:47;1.00;99.90
15259;DHT22;34462;51.368;12.364;2022-12-07T02:20:28;1.00;99.90
15259;DHT22;34462;51.368;12.364;2022-12-07T02:26:43;1.00;99.90
15259;DHT22;34462;51.368;12.364;2022-12-07T02:29:34;1.10;99.90
15259;DHT22;34462;51.368;12.364;2022-12-07T02:32:10;1.10;99.90
15259;DHT22;34462;51.368;12.364;2022-12-07T02:34:49;1.10;99.90
15259;DHT22;34462;51.368;12.364;2022-12-07T02:37:29;1.20;99.90
15259;DHT22;34462;51.368;12.364;2022-12-07T02:40:07;1.20;99.90
15259;DHT22;34462;51.368;12.364;2022-12-07T02:42:42;1.20;99.90
15259;DHT22;34462;51.368;12.364;2022-12-07T02:45:18;1.20;99.90
15259;DHT22;34462;51.368;12.364;2022-12-07T02:47:51;1.10;99.90
15259;DHT22;34462;51.368;12.364;2022-12-07T02:50:26;1.10;99.90
15259;DHT22;34462;51.368;12.364;2022-12-07T02:52:55;1.20;99.90
15259;DHT22;34462;51.368;12.364;2022-12-07T02:55:27;1.20;99.90
15259;DHT22;34462;51.368;12.364;2022-12-07T02:58:13;1.30;99.90
15259;DHT22;34462;51.368;12.364;2022-12-07T03:01:02;1.30;99.90
15259;DHT22;34462;51.368;12.364;2022-12-07T03:03:37;1.30;99.90
15259;DHT22;34462;51.368;12.364;2022-12-07T03:06:16;1.30;99.90
15259;DHT22;34462;51.368;12.364;2022-12-07T03:08:55;1.30;99.90
15259;DHT22;34462;51.368;12.364;2022-12-07T03:11:33;1.30;99.90
15259;DHT22;34462;51.368;12.364;2022-12-07T03:14:15;1.20;99.90
15259;DHT22;34462;51.368;12.364;2022-12-07T03:16:53;1.20;99.90
15259;DHT22;34462;51.368;12.364;2022-12-07T03:19:26;1.20;99.90
15259;DHT22;34462;51.368;12.364;2022-12-07T03:21:57;1.20;99.90
15259;DHT22;34462;51.368;12.364;2022-12-07T03:24:32;1.30;99.90
15259;DHT22;34462;51.368;12.364;2022-12-07T03:27:06;1.70;99.90
15259;DHT22;34462;51.368;12.364;2022-12-07T03:29:40;1.40;99.90
15259;DHT22;34462;51.368;12.364;2022-12-07T03:32:16;1.40;99.90
15259;DHT22;34462;51.368;12.364;2022-12-07T03:34:55;1.50;99.90
15259;DHT22;34462;51.368;12.364;2022-12-07T03:37:33;1.40;99.90
15259;DHT22;34462;51.368;12.364;2022-12-07T03:40:11;1.50;99.90
15259;DHT22;34462;51.368;12.364;2022-12-07T03:42:45;1.50;99.90
15259;DHT22;34462;51.368;12.364;2022-12-07T03:45:15;1.50;99.90
15259;DHT22;34462;51.368;12.364;2022-12-07T03:47:48;1.60;99.90
15259;DHT22;34462;51.368;12.364;2022-12-07T03:50:29;1.60;99.90
15259;DHT22;34462;51.368;12.364;2022-12-07T03:53:09;1.50;99.90
15259;DHT22;34462;51.368;12.364;2022-12-07T03:55:43;1.60;99.90
15259;DHT22;34462;51.368;12.364;2022-12-07T03:58:16;1.60;99.90
15259;DHT22;34462;51.368;12.364;2022-12-07T04:00:47;1.70;99.90
15259;DHT22;34462;51.368;12.364;2022-12-07T04:03:18;1.70;99.90
15259;DHT22;34462;51.368;12.364;2022-12-07T04:05:47;1.80;99.90
15259;DHT22;34462;51.368;12.364;2022-12-07T04:08:15;1.90;99.90
15259;DHT22;34462;51.368;12.364;2022-12-07T04:10:43;2.00;99.90
15259;DHT22;34462;51.368;12.364;2022-12-07T04:13:11;2.10;99.90
15259;DHT22;34462;51.368;12.364;2022-12-07T04:15:40;2.10;99.90
15259;DHT22;34462;51.368;12.364;2022-12-07T04:18:08;2.10;99.90
15259;DHT22;34462;51.368;12.364;2022-12-07T04:20:37;2.20;99.90
15259;DHT22;34462;51.368;12.364;2022-12-07T04:23:05;2.20;99.90
15259;DHT22;34462;51.368;12.364;2022-12-07T04:25:34;2.20;99.90
15259;DHT22;34462;51.368;12.364;2022-12-07T04:28:02;2.30;99.90
15259;DHT22;34462;51.368;12.364;2022-12-07T04:30:30;2.30;99.90
15259;DHT22;34462;51.368;12.364;2022-12-07T04:32:58;2.40;99.90
15259;DHT22;34462;51.368;12.364;2022-12-07T04:35:26;2.50;99.90
15259;DHT22;34462;51.368;12.364;2022-12-07T04:37:56;2.40;99.90
15259;DHT22;34462;51.368;12.364;2022-12-07T04:40:24;2.50;99.90
15259;DHT22;34462;51.368;12.364;2022-12-07T04:42:52;2.40;99.90
15259;DHT22;34462;51.368;12.364;2022-12-07T04:45:20;2.50;99.90
15259;DHT22;34462;51.368;12.364;2022-12-07T04:47:48;2.50;99.90
15259;DHT22;34462;51.368;12.364;2022-12-07T04:50:16;2.60;99.90
15259;DHT22;34462;51.368;12.364;2022-12-07T04:52:45;2.50;99.90
15259;DHT22;34462;51.368;12.364;2022-12-07T04:55:14;2.50;99.90
15259;DHT22;34462;51.368;12.364;2022-12-07T04:57:43;2.50;99.90
15259;DHT22;34462;51.368;12.364;2022-12-07T05:00:11;2.50;99.90
15259;DHT22;34462;51.368;12.364;2022-12-07T05:02:39;2.50;99.90
15259;DHT22;34462;51.368;12.364;2022-12-07T05:05:07;2.50;99.90
15259;DHT22;34462;51.368;12.364;2022-12-07T05:07:36;2.50;99.90
15259;DHT22;34462;51.368;12.364;2022-12-07T05:10:05;2.50;99.90
15259;DHT22;34462;51.368;12.364;2022-12-07T05:12:35;2.50;99.90
15259;DHT22;34462;51.368;12.364;2022-12-07T05:15:04;2.50;99.90
15259;DHT22;34462;51.368;12.364;2022-12-07T05:17:33;2.50;99.90
15259;DHT22;34462;51.368;12.364;2022-12-07T05:20:01;2.60;99.90
15259;DHT22;34462;51.368;12.364;2022-12-07T05:22:30;2.60;99.90
15259;DHT22;34462;51.368;12.364;2022-12-07T05:24:59;2.60;99.90
15259;DHT22;34462;51.368;12.364;2022-12-07T05:27:27;2.60;99.90
15259;DHT22;34462;51.368;12.364;2022-12-07T05:29:56;2.60;99.90
15259;DHT22;34462;51.368;12.364;2022-12-07T05:32:25;2.60;99.90
15259;DHT22;34462;51.368;12.364;2022-12-07T05:34:53;2.70;99.90
15259;DHT22;34462;51.368;12.364;2022-12-07T05:37:21;2.70;99.90
15259;DHT22;34462;51.368;12.364;2022-12-07T05:39:49;2.60;99.90
15259;DHT22;34462;51.368;12.364;2022-12-07T05:42:17;2.60;99.90
15259;DHT22;34462;51.368;12.364;2022-12-07T05:44:46;2.70;99.90
15259;DHT22;34462;51.368;12.364;2022-12-07T05:47:16;2.60;99.90
15259;DHT22;34462;51.368;12.364;2022-12-07T05:49:44;2.60;99.90
15259;DHT22;34462;51.368;12.364;2022-12-07T05:52:12;2.70;99.90
15259;DHT22;34462;51.368;12.364;2022-12-07T05:54:40;2.70;99.90
15259;DHT22;34462;51.368;12.364;2022-12-07T05:57:09;2.80;99.90
15259;DHT22;34462;51.368;12.364;2022-12-07T05:59:37;2.80;99.90
15259;DHT22;34462;51.368;12.364;2022-12-07T06:02:06;2.80;99.90
15259;DHT22;34462;51.368;12.364;2022-12-07T06:04:39;2.90;99.90
15259;DHT22;34462;51.368;12.364;2022-12-07T06:07:09;2.90;99.90
15259;DHT22;34462;51.368;12.364;2022-12-07T06:09:38;2.90;99.90
15259;DHT22;34462;51.368;12.364;2022-12-07T06:12:08;2.90;99.90
15259;DHT22;34462;51.368;12.364;2022-12-07T06:14:55;2.80;99.90
15259;DHT22;34462;51.368;12.364;2022-12-07T06:17:23;2.90;99.90
15259;DHT22;34462;51.368;12.364;2022-12-07T06:19:53;2.90;99.90
15259;DHT22;34462;51.368;12.364;2022-12-07T06:22:21;2.90;99.90
15259;DHT22;34462;51.368;12.364;2022-12-07T06:24:49;2.80;99.90
15259;DHT22;34462;51.368;12.364;2022-12-07T06:27:17;2.90;99.90
15259;DHT22;34462;51.368;12.364;2022-12-07T06:29:45;2.90;99.90
15259;DHT22;34462;51.368;12.364;2022-12-07T06:32:13;2.90;99.90
15259;DHT22;34462;51.368;12.364;2022-12-07T06:34:42;2.80;99.90
15259;DHT22;34462;51.368;12.364;2022-12-07T06:37:11;2.80;99.90
15259;DHT22;34462;51.368;12.364;2022-12-07T06:39:39;2.70;99.90
15259;DHT22;34462;51.368;12.364;2022-12-07T06:42:07;2.70;99.90
15259;DHT22;34462;51.368;12.364;2022-12-07T06:44:35;2.60;99.90
15259;DHT22;34462;51.368;12.364;2022-12-07T06:47:04;2.50;99.90
15259;DHT22;34462;51.368;12.364;2022-12-07T06:49:52;2.50;99.90
15259;DHT22;34462;51.368;12.364;2022-12-07T06:52:21;2.60;99.90
15259;DHT22;34462;51.368;12.364;2022-12-07T06:54:49;2.70;99.90
15259;DHT22;34462;51.368;12.364;2022-12-07T06:57:18;2.70;99.90
15259;DHT22;34462;51.368;12.364;2022-12-07T06:59:46;2.80;99.90
15259;DHT22;34462;51.368;12.364;2022-12-07T07:02:14;2.90;99.90
15259;DHT22;34462;51.368;12.364;2022-12-07T07:04:43;2.90;99.90
15259;DHT22;34462;51.368;12.364;2022-12-07T07:07:11;2.90;99.90
15259;DHT22;34462;51.368;12.364;2022-12-07T07:09:40;3.00;99.90
15259;DHT22;34462;51.368;12.364;2022-12-07T07:12:09;3.00;99.90
15259;DHT22;34462;51.368;12.364;2022-12-07T07:14:37;3.10;99.90
15259;DHT22;34462;51.368;12.364;2022-12-07T07:17:05;3.00;99.90
15259;DHT22;34462;51.368;12.364;2022-12-07T07:19:33;3.10;99.90
15259;DHT22;34462;51.368;12.364;2022-12-07T07:22:02;3.10;99.90
15259;DHT22;34462;51.368;12.364;2022-12-07T07:24:30;3.10;99.90
15259;DHT22;34462;51.368;12.364;2022-12-07T07:26:59;3.10;99.90
15259;DHT22;34462;51.368;12.364;2022-12-07T07:29:28;3.20;99.90
15259;DHT22;34462;51.368;12.364;2022-12-07T07:31:56;3.10;99.90
15259;DHT22;34462;51.368;12.364;2022-12-07T07:34:32;3.10;99.90
15259;DHT22;34462;51.368;12.364;2022-12-07T07:37:00;3.00;99.90
15259;DHT22;34462;51.368;12.364;2022-12-07T07:39:28;3.10;99.90
15259;DHT22;34462;51.368;12.364;2022-12-07T07:41:56;3.10;99.90
15259;DHT22;34462;51.368;12.364;2022-12-07T07:44:26;3.10;99.90
15259;DHT22;34462;51.368;12.364;2022-12-07T07:47:00;3.30;99.90
15259;DHT22;34462;51.368;12.364;2022-12-07T07:49:29;3.10;99.90
15259;DHT22;34462;51.368;12.364;2022-12-07T07:51:57;3.10;99.90
15259;DHT22;34462;51.368;12.364;2022-12-07T07:54:25;3.20;99.90
15259;DHT22;34462;51.368;12.364;2022-12-07T07:56:53;3.10;99.90
15259;DHT22;34462;51.368;12.364;2022-12-07T07:59:22;3.10;99.90
15259;DHT22;34462;51.368;12.364;2022-12-07T08:01:51;3.10;99.90
15259;DHT22;34462;51.368;12.364;2022-12-07T08:04:20;3.10;99.90
15259;DHT22;34462;51.368;12.364;2022-12-07T08:06:48;3.10;99.90
15259;DHT22;34462;51.368;12.364;2022-12-07T08:09:16;3.20;99.90
15259;DHT22;34462;51.368;12.364;2022-12-07T08:11:44;3.00;99.90
15259;DHT22;34462;51.368;12.364;2022-12-07T08:14:13;3.10;99.90
15259;DHT22;34462;51.368;12.364;2022-12-07T08:16:42;3.00;99.90
15259;DHT22;34462;51.368;12.364;2022-12-07T08:19:10;3.00;99.90
15259;DHT22;34462;51.368;12.364;2022-12-07T08:21:38;3.00;99.90
15259;DHT22;34462;51.368;12.364;2022-12-07T08:24:07;3.00;99.90
15259;DHT22;34462;51.368;12.364;2022-12-07T08:26:35;2.90;99.90
15259;DHT22;34462;51.368;12.364;2022-12-07T08:29:03;3.10;99.90
15259;DHT22;34462;51.368;12.364;2022-12-07T08:31:31;3.20;99.90
15259;DHT22;34462;51.368;12.364;2022-12-07T08:34:01;3.30;99.90
15259;DHT22;34462;51.368;12.364;2022-12-07T08:36:30;3.40;99.90
15259;DHT22;34462;51.368;12.364;2022-12-07T08:38:58;3.60;99.90
15259;DHT22;34462;51.368;12.364;2022-12-07T08:41:46;3.80;99.90
15259;DHT22;34462;51.368;12.364;2022-12-07T08:44:14;3.90;99.90
15259;DHT22;34462;51.368;12.364;2022-12-07T08:46:46;4.00;99.90
15259;DHT22;34462;51.368;12.364;2022-12-07T08:49:23;4.10;99.90
15259;DHT22;34462;51.368;12.364;2022-12-07T08:51:55;4.20;99.90
15259;DHT22;34462;51.368;12.364;2022-12-07T08:54:24;4.20;99.90
15259;DHT22;34462;51.368;12.364;2022-12-07T08:56:53;4.20;99.90
15259;DHT22;34462;51.368;12.364;2022-12-07T08:59:26;4.30;99.90
15259;DHT22;34462;51.368;12.364;2022-12-07T09:01:56;4.30;99.90
15259;DHT22;34462;51.368;12.364;2022-12-07T09:04:26;4.30;99.90
15259;DHT22;34462;51.368;12.364;2022-12-07T09:06:55;4.30;99.90
15259;DHT22;34462;51.368;12.364;2022-12-07T09:09:23;4.20;99.90
15259;DHT22;34462;51.368;12.364;2022-12-07T09:11:52;4.30;99.90
15259;DHT22;34462;51.368;12.364;2022-12-07T09:14:20;4.40;99.90
15259;DHT22;34462;51.368;12.364;2022-12-07T09:16:48;4.50;99.90
15259;DHT22;34462;51.368;12.364;2022-12-07T09:19:16;4.50;99.90
15259;DHT22;34462;51.368;12.364;2022-12-07T09:21:46;4.50;99.90
15259;DHT22;34462;51.368;12.364;2022-12-07T09:24:14;4.60;99.90
15259;DHT22;34462;51.368;12.364;2022-12-07T09:26:42;4.60;99.90
15259;DHT22;34462;51.368;12.364;2022-12-07T09:29:11;4.70;99.90
15259;DHT22;34462;51.368;12.364;2022-12-07T09:31:39;4.60;99.90
15259;DHT22;34462;51.368;12.364;2022-12-07T09:34:08;4.70;99.90
15259;DHT22;34462;51.368;12.364;2022-12-07T09:36:36;4.60;99.90
15259;DHT22;34462;51.368;12.364;2022-12-07T09:39:06;4.60;99.90
15259;DHT22;34462;51.368;12.364;2022-12-07T09:41:37;4.60;99.90
15259;DHT22;34462;51.368;12.364;2022-12-07T09:44:10;4.50;99.90
15259;DHT22;34462;51.368;12.364;2022-12-07T09:46:42;4.50;99.90
15259;DHT22;34462;51.368;12.364;2022-12-07T09:49:16;4.40;99.90
15259;DHT22;34462;51.368;12.364;2022-12-07T09:51:46;4.40;99.90
15259;DHT22;34462;51.368;12.364;2022-12-07T09:54:17;4.40;99.90
15259;DHT22;34462;51.368;12.364;2022-12-07T09:56:45;4.20;99.90
15259;DHT22;34462;51.368;12.364;2022-12-07T09:59:17;4.10;99.90
15259;DHT22;34462;51.368;12.364;2022-12-07T10:01:48;4.00;99.90
15259;DHT22;34462;51.368;12.364;2022-12-07T10:04:20;4.10;99.90
15259;DHT22;34462;51.368;12.364;2022-12-07T10:06:50;4.10;99.90
15259;DHT22;34462;51.368;12.364;2022-12-07T10:09:21;4.20;99.90
15259;DHT22;34462;51.368;12.364;2022-12-07T10:12:02;4.20;99.90
15259;DHT22;34462;51.368;12.364;2022-12-07T10:14:33;4.30;99.90
15259;DHT22;34462;51.368;12.364;2022-12-07T10:17:35;4.40;99.90
15259;DHT22;34462;51.368;12.364;2022-12-07T10:20:19;4.50;99.90
15259;DHT22;34462;51.368;12.364;2022-12-07T10:22:58;4.60;99.90
15259;DHT22;34462;51.368;12.364;2022-12-07T10:25:32;4.70;99.90
15259;DHT22;34462;51.368;12.364;2022-12-07T10:28:17;4.80;99.90
15259;DHT22;34462;51.368;12.364;2022-12-07T10:30:55;4.90;99.90
15259;DHT22;34462;51.368;12.364;2022-12-07T10:33:31;4.90;99.90
15259;DHT22;34462;51.368;12.364;2022-12-07T10:36:16;5.10;99.90
15259;DHT22;34462;51.368;12.364;2022-12-07T10:38:48;5.10;99.90
15259;DHT22;34462;51.368;12.364;2022-12-07T10:41:20;5.20;99.90
15259;DHT22;34462;51.368;12.364;2022-12-07T10:43:52;5.30;99.90
15259;DHT22;34462;51.368;12.364;2022-12-07T10:46:54;5.30;99.90
15259;DHT22;34462;51.368;12.364;2022-12-07T10:53:24;5.30;99.90
15259;DHT22;34462;51.368;12.364;2022-12-07T10:56:09;5.30;99.90
15259;DHT22;34462;51.368;12.364;2022-12-07T10:59:15;5.30;99.90
15259;DHT22;34462;51.368;12.364;2022-12-07T11:02:08;5.30;99.90
15259;DHT22;34462;51.368;12.364;2022-12-07T11:04:59;5.30;99.90
15259;DHT22;34462;51.368;12.364;2022-12-07T11:07:42;5.30;99.90
15259;DHT22;34462;51.368;12.364;2022-12-07T11:10:26;5.40;99.90
15259;DHT22;34462;51.368;12.364;2022-12-07T11:13:20;5.40;99.90
15259;DHT22;34462;51.368;12.364;2022-12-07T11:16:16;5.40;99.90
15259;DHT22;34462;51.368;12.364;2022-12-07T11:18:56;5.40;99.90
15259;DHT22;34462;51.368;12.364;2022-12-07T11:21:40;5.30;99.90
15259;DHT22;34462;51.368;12.364;2022-12-07T11:24:17;5.20;99.90
15259;DHT22;34462;51.368;12.364;2022-12-07T11:27:00;5.00;99.90
15259;DHT22;34462;51.368;12.364;2022-12-07T11:29:50;4.70;99.90
15259;DHT22;34462;51.368;12.364;2022-12-07T11:32:42;4.50;99.90
15259;DHT22;34462;51.368;12.364;2022-12-07T11:35:22;4.40;99.90
15259;DHT22;34462;51.368;12.364;2022-12-07T11:38:01;4.30;99.90
15259;DHT22;34462;51.368;12.364;2022-12-07T11:40:41;4.20;99.90
15259;DHT22;34462;51.368;12.364;2022-12-07T11:43:17;4.20;99.90
15259;DHT22;34462;51.368;12.364;2022-12-07T11:45:56;4.20;99.90
15259;DHT22;34462;51.368;12.364;2022-12-07T11:48:33;4.30;99.90
15259;DHT22;34462;51.368;12.364;2022-12-07T11:51:09;4.40;99.90
15259;DHT22;34462;51.368;12.364;2022-12-07T11:53:41;4.40;99.90
15259;DHT22;34462;51.368;12.364;2022-12-07T11:56:15;4.50;99.90
15259;DHT22;34462;51.368;12.364;2022-12-07T11:58:49;4.50;99.90
15259;DHT22;34462;51.368;12.364;2022-12-07T12:01:32;4.60;99.90
15259;DHT22;34462;51.368;12.364;2022-12-07T12:04:19;4.60;99.90
15259;DHT22;34462;51.368;12.364;2022-12-07T12:06:56;4.60;99.90
15259;DHT22;34462;51.368;12.364;2022-12-07T12:09:49;4.60;99.90
15259;DHT22;34462;51.368;12.364;2022-12-07T12:12:33;4.70;99.90
15259;DHT22;34462;51.368;12.364;2022-12-07T12:15:43;4.70;99.90
15259;DHT22;34462;51.368;12.364;2022-12-07T12:21:32;4.80;99.90
15259;DHT22;34462;51.368;12.364;2022-12-07T12:24:06;4.90;99.90
15259;DHT22;34462;51.368;12.364;2022-12-07T12:26:49;4.90;99.90
15259;DHT22;34462;51.368;12.364;2022-12-07T12:29:22;4.90;99.90
15259;DHT22;34462;51.368;12.364;2022-12-07T12:32:16;4.90;99.90
15259;DHT22;34462;51.368;12.364;2022-12-07T12:35:02;5.00;99.90
15259;DHT22;34462;51.368;12.364;2022-12-07T12:37:46;5.00;99.90
15259;DHT22;34462;51.368;12.364;2022-12-07T12:40:40;5.00;99.90
15259;DHT22;34462;51.368;12.364;2022-12-07T12:43:45;5.10;99.90
15259;DHT22;34462;51.368;12.364;2022-12-07T12:46:50;5.10;99.90
15259;DHT22;34462;51.368;12.364;2022-12-07T12:52:58;5.20;99.90
15259;DHT22;34462;51.368;12.364;2022-12-07T12:59:26;5.20;99.90
15259;DHT22;34462;51.368;12.364;2022-12-07T13:02:10;5.30;99.90
15259;DHT22;34462;51.368;12.364;2022-12-07T13:04:53;5.20;99.90
15259;DHT22;34462;51.368;12.364;2022-12-07T13:07:54;5.30;99.90
15259;DHT22;34462;51.368;12.364;2022-12-07T13:10:35;5.30;99.90
15259;DHT22;34462;51.368;12.364;2022-12-07T13:13:32;5.30;99.90
15259;DHT22;34462;51.368;12.364;2022-12-07T13:16:40;5.30;99.90
15259;DHT22;34462;51.368;12.364;2022-12-07T13:19:53;5.30;99.90
15259;DHT22;34462;51.368;12.364;2022-12-07T13:22:53;5.30;99.90
15259;DHT22;34462;51.368;12.364;2022-12-07T13:25:34;5.30;99.90
15259;DHT22;34462;51.368;12.364;2022-12-07T13:28:14;5.30;99.90
15259;DHT22;34462;51.368;12.364;2022-12-07T13:31:08;5.30;99.90
15259;DHT22;34462;51.368;12.364;2022-12-07T13:33:43;5.40;99.90
15259;DHT22;34462;51.368;12.364;2022-12-07T13:36:19;5.40;99.90
15259;DHT22;34462;51.368;12.364;2022-12-07T13:38:56;5.40;99.90
15259;DHT22;34462;51.368;12.364;2022-12-07T13:41:26;5.40;99.90
15259;DHT22;34462;51.368;12.364;2022-12-07T13:44:03;5.30;99.90
15259;DHT22;34462;51.368;12.364;2022-12-07T13:46:44;5.30;99.90
15259;DHT22;34462;51.368;12.364;2022-12-07T13:49:23;5.30;99.90
15259;DHT22;34462;51.368;12.364;2022-12-07T13:51:53;5.30;99.90
15259;DHT22;34462;51.368;12.364;2022-12-07T13:54:23;5.30;99.90
15259;DHT22;34462;51.368;12.364;2022-12-07T13:56:52;5.30;99.90
15259;DHT22;34462;51.368;12.364;2022-12-07T13:59:22;5.30;99.90
15259;DHT22;34462;51.368;12.364;2022-12-07T14:01:53;5.30;99.90
15259;DHT22;34462;51.368;12.364;2022-12-07T14:04:33;5.30;99.90
15259;DHT22;34462;51.368;12.364;2022-12-07T14:07:19;5.30;99.90
15259;DHT22;34462;51.368;12.364;2022-12-07T14:09:58;5.20;99.90
15259;DHT22;34462;51.368;12.364;2022-12-07T14:12:29;5.20;99.90
15259;DHT22;34462;51.368;12.364;2022-12-07T14:14:59;5.10;99.90
15259;DHT22;34462;51.368;12.364;2022-12-07T14:17:29;5.10;99.90
15259;DHT22;34462;51.368;12.364;2022-12-07T14:19:58;5.00;99.90
15259;DHT22;34462;51.368;12.364;2022-12-07T14:22:29;5.00;99.90
15259;DHT22;34462;51.368;12.364;2022-12-07T14:25:15;4.90;99.90
15259;DHT22;34462;51.368;12.364;2022-12-07T14:27:51;4.90;99.90
15259;DHT22;34462;51.368;12.364;2022-12-07T14:30:24;4.80;99.90
15259;DHT22;34462;51.368;12.364;2022-12-07T14:32:57;4.80;99.90
15259;DHT22;34462;51.368;12.364;2022-12-07T14:35:27;4.80;99.90
15259;DHT22;34462;51.368;12.364;2022-12-07T14:37:56;4.80;99.90
15259;DHT22;34462;51.368;12.364;2022-12-07T14:40:28;4.70;99.90
15259;DHT22;34462;51.368;12.364;2022-12-07T14:43:00;4.60;99.90
15259;DHT22;34462;51.368;12.364;2022-12-07T14:45:30;4.60;99.90
15259;DHT22;34462;51.368;12.364;2022-12-07T14:47:58;4.50;99.90
15259;DHT22;34462;51.368;12.364;2022-12-07T14:50:51;4.50;99.90
15259;DHT22;34462;51.368;12.364;2022-12-07T14:53:42;4.50;99.90
15259;DHT22;34462;51.368;12.364;2022-12-07T14:56:22;4.40;99.90
15259;DHT22;34462;51.368;12.364;2022-12-07T14:58:50;4.40;99.90
15259;DHT22;34462;51.368;12.364;2022-12-07T15:01:18;4.40;99.90
15259;DHT22;34462;51.368;12.364;2022-12-07T15:03:46;4.40;99.90
15259;DHT22;34462;51.368;12.364;2022-12-07T15:06:16;4.40;99.90
15259;DHT22;34462;51.368;12.364;2022-12-07T15:08:45;4.40;99.90
15259;DHT22;34462;51.368;12.364;2022-12-07T15:11:14;4.40;99.90
15259;DHT22;34462;51.368;12.364;2022-12-07T15:13:45;4.30;99.90
15259;DHT22;34462;51.368;12.364;2022-12-07T15:16:37;4.20;99.90
15259;DHT22;34462;51.368;12.364;2022-12-07T15:19:27;4.20;99.90
15259;DHT22;34462;51.368;12.364;2022-12-07T15:21:56;4.20;99.90
15259;DHT22;34462;51.368;12.364;2022-12-07T15:24:26;4.10;99.90
15259;DHT22;34462;51.368;12.364;2022-12-07T15:26:54;4.10;99.90
15259;DHT22;34462;51.368;12.364;2022-12-07T15:29:24;4.00;99.90
15259;DHT22;34462;51.368;12.364;2022-12-07T15:31:52;4.00;99.90
15259;DHT22;34462;51.368;12.364;2022-12-07T15:34:24;3.90;99.90
15259;DHT22;34462;51.368;12.364;2022-12-07T15:37:01;4.00;99.90
15259;DHT22;34462;51.368;12.364;2022-12-07T15:39:30;4.00;99.90
15259;DHT22;34462;51.368;12.364;2022-12-07T15:41:58;4.00;99.90
15259;DHT22;34462;51.368;12.364;2022-12-07T15:44:27;4.00;99.90
15259;DHT22;34462;51.368;12.364;2022-12-07T15:47:13;4.00;99.90
15259;DHT22;34462;51.368;12.364;2022-12-07T15:49:41;3.90;99.90
15259;DHT22;34462;51.368;12.364;2022-12-07T15:52:09;3.90;99.90
15259;DHT22;34462;51.368;12.364;2022-12-07T15:54:37;3.90;99.90
15259;DHT22;34462;51.368;12.364;2022-12-07T15:57:06;3.90;99.90
15259;DHT22;34462;51.368;12.364;2022-12-07T15:59:35;4.00;99.90
15259;DHT22;34462;51.368;12.364;2022-12-07T16:02:03;4.10;99.90
15259;DHT22;34462;51.368;12.364;2022-12-07T16:04:31;4.20;99.90
15259;DHT22;34462;51.368;12.364;2022-12-07T16:07:00;4.20;99.90
15259;DHT22;34462;51.368;12.364;2022-12-07T16:09:28;4.30;99.90
15259;DHT22;34462;51.368;12.364;2022-12-07T16:11:56;4.30;99.90
15259;DHT22;34462;51.368;12.364;2022-12-07T16:14:24;4.20;99.90
15259;DHT22;34462;51.368;12.364;2022-12-07T16:16:54;4.00;99.90
15259;DHT22;34462;51.368;12.364;2022-12-07T16:19:22;3.90;99.90
15259;DHT22;34462;51.368;12.364;2022-12-07T16:21:50;3.70;99.90
15259;DHT22;34462;51.368;12.364;2022-12-07T16:24:18;3.60;99.90
15259;DHT22;34462;51.368;12.364;2022-12-07T16:26:46;3.50;99.90
15259;DHT22;34462;51.368;12.364;2022-12-07T16:29:22;3.40;99.90